createdAt,value
2018-06-09T00:00:38.473Z,43.17
2018-06-09T00:03:09.213Z,54.47
2018-06-09T00:05:39.941Z,53.67
2018-06-09T00:08:10.742Z,46.43
2018-06-09T00:10:42.028Z,71.90
2018-06-09T00:13:12.801Z,47.30
2018-06-09T00:15:43.602Z,46.10
2018-06-09T00:18:14.346Z,54.67
2018-06-09T00:20:45.105Z,79.70
2018-06-09T00:23:16.231Z,67.13
2018-06-09T00:25:46.906Z,70.23
2018-06-09T00:28:17.899Z,62.53
2018-06-09T00:30:48.588Z,69.20
2018-06-09T00:33:19.386Z,63.23
2018-06-09T00:35:50.369Z,64.00
2018-06-09T00:38:21.156Z,64.30
2018-06-09T00:40:52.181Z,64.33
2018-06-09T00:43:22.984Z,63.77
2018-06-09T00:45:54.687Z,73.80
2018-06-09T00:48:25.637Z,65.83
2018-06-09T00:50:56.353Z,86.97
2018-06-09T00:53:27.209Z,83.23
2018-06-09T00:56:08.707Z,74.67
2018-06-09T00:58:39.359Z,85.77
2018-06-09T01:01:10.188Z,81.63
2018-06-09T01:03:41.125Z,68.83
2018-06-09T01:06:11.749Z,75.20
2018-06-09T01:08:42.650Z,67.57
2018-06-09T01:11:13.491Z,63.47
2018-06-09T01:13:44.456Z,60.87
2018-06-09T01:16:15.458Z,67.53
2018-06-09T01:18:49.709Z,66.63
2018-06-09T01:21:20.403Z,65.77
2018-06-09T01:23:51.371Z,70.07
2018-06-09T01:26:21.441Z,68.63
2018-06-09T01:28:51.850Z,68.93
2018-06-09T01:31:22.550Z,52.70
2018-06-09T01:33:53.336Z,64.17
2018-06-09T01:36:23.907Z,73.30
2018-06-09T01:38:54.631Z,68.37
2018-06-09T01:41:25.675Z,78.57
2018-06-09T01:43:56.351Z,57.47
2018-06-09T01:46:26.902Z,42.93
2018-06-09T01:48:57.607Z,46.67
2018-06-09T01:51:28.397Z,47.27
2018-06-09T01:53:59.083Z,47.33
2018-06-09T01:56:29.698Z,46.63
2018-06-09T01:59:00.412Z,42.50
2018-06-09T02:01:31.148Z,47.93
2018-06-09T02:04:01.670Z,45.90
2018-06-09T02:06:32.339Z,47.87
2018-06-09T02:09:03.012Z,44.03
2018-06-09T02:11:33.813Z,44.87
2018-06-09T02:14:04.870Z,49.77
2018-06-09T02:16:35.481Z,47.57
2018-06-09T02:19:06.018Z,61.13
2018-06-09T02:21:36.525Z,66.17
2018-06-09T02:24:07.600Z,95.77
2018-06-09T02:26:38.219Z,76.77
2018-06-09T02:29:08.813Z,59.97
2018-06-09T02:31:39.555Z,53.33
2018-06-09T02:34:10.029Z,55.10
2018-06-09T02:36:40.705Z,58.93
2018-06-09T02:39:11.351Z,65.37
2018-06-09T02:41:42.422Z,52.57
2018-06-09T02:44:13.115Z,51.23
2018-06-09T02:46:43.912Z,49.07
2018-06-09T02:49:14.574Z,49.90
2018-06-09T02:51:45.097Z,53.23
2018-06-09T02:54:15.779Z,46.87
2018-06-09T02:56:46.368Z,40.20
2018-06-09T02:59:17.066Z,37.90
2018-06-09T03:01:47.592Z,51.90
2018-06-09T03:04:18.162Z,57.27
2018-06-09T03:06:49.271Z,45.90
2018-06-09T03:09:19.817Z,44.27
2018-06-09T03:11:51.371Z,51.13
2018-06-09T03:14:21.753Z,44.33
2018-06-09T03:16:52.354Z,49.33
2018-06-09T03:19:23.119Z,52.20
2018-06-09T03:21:53.716Z,53.20
2018-06-09T03:24:24.546Z,55.43
2018-06-09T03:26:55.227Z,48.50
2018-06-09T03:29:25.723Z,53.63
2018-06-09T03:31:56.296Z,46.03
2018-06-09T03:34:26.772Z,78.27
2018-06-09T03:36:57.307Z,45.23
2018-06-09T03:39:27.743Z,46.17
2018-06-09T03:41:58.360Z,53.50
2018-06-09T03:44:28.783Z,53.57
2018-06-09T03:46:59.424Z,53.37
2018-06-09T03:49:30.293Z,61.90
2018-06-09T03:52:00.801Z,52.37
2018-06-09T03:54:31.255Z,54.13
2018-06-09T03:57:01.706Z,55.20
2018-06-09T03:59:32.284Z,46.50
2018-06-09T04:02:03.420Z,42.10
2018-06-09T04:04:33.895Z,42.47
2018-06-09T04:07:04.420Z,57.70
2018-06-09T04:09:34.825Z,41.23
2018-06-09T04:12:06.100Z,53.63
2018-06-09T04:14:36.898Z,42.80
2018-06-09T04:17:07.379Z,54.53
2018-06-09T04:19:38.074Z,45.70
2018-06-09T04:22:08.749Z,43.67
2018-06-09T04:24:39.200Z,38.10
2018-06-09T04:27:09.799Z,35.40
2018-06-09T04:29:40.173Z,35.33
2018-06-09T04:32:11.058Z,33.37
2018-06-09T04:34:42.321Z,35.67
2018-06-09T04:37:12.844Z,38.77
2018-06-09T04:39:43.373Z,42.50
2018-06-09T04:42:16.847Z,40.80
2018-06-09T04:44:47.981Z,39.33
2018-06-09T04:47:18.634Z,39.93
2018-06-09T04:49:49.149Z,38.00
2018-06-09T04:52:19.740Z,42.50
2018-06-09T04:54:50.250Z,37.53
2018-06-09T04:57:20.733Z,37.53
2018-06-09T04:59:51.279Z,34.20
2018-06-09T05:02:21.708Z,35.63
2018-06-09T05:04:52.287Z,35.87
2018-06-09T05:07:22.748Z,35.10
2018-06-09T05:09:53.611Z,31.00
2018-06-09T05:12:24.272Z,39.40
2018-06-09T05:14:54.941Z,43.73
2018-06-09T05:17:25.790Z,37.43
2018-06-09T05:19:56.151Z,35.37
2018-06-09T05:22:26.648Z,49.47
2018-06-09T05:24:57.146Z,44.23
2018-06-09T05:27:27.727Z,46.77
2018-06-09T05:29:59.489Z,33.23
2018-06-09T05:32:30.057Z,35.90
2018-06-09T05:35:00.588Z,50.47
2018-06-09T05:37:31.276Z,53.13
2018-06-09T05:40:01.905Z,63.60
2018-06-09T05:42:32.456Z,76.40
2018-06-09T05:45:03.228Z,46.00
2018-06-09T05:47:33.817Z,62.47
2018-06-09T05:50:04.583Z,42.10
2018-06-09T05:52:35.543Z,46.23
2018-06-09T05:55:06.524Z,37.80
2018-06-09T05:57:37.294Z,39.20
2018-06-09T06:00:08.301Z,42.37
2018-06-09T06:02:38.942Z,40.17
2018-06-09T06:05:10.026Z,34.37
2018-06-09T06:07:40.598Z,32.07
2018-06-09T06:10:11.129Z,38.63
2018-06-09T06:12:41.697Z,56.80
2018-06-09T06:15:12.473Z,35.53
2018-06-09T06:17:43.117Z,37.77
2018-06-09T06:20:13.699Z,28.50
2018-06-09T06:22:44.117Z,32.47
2018-06-09T06:25:14.749Z,32.90
2018-06-09T06:27:45.326Z,33.87
2018-06-09T06:30:15.882Z,30.63
2018-06-09T06:32:46.526Z,45.83
2018-06-09T06:35:17.145Z,27.87
2018-06-09T06:37:47.662Z,28.77
2018-06-09T06:40:18.087Z,27.80
2018-06-09T06:42:48.849Z,31.27
2018-06-09T06:45:19.188Z,36.33
2018-06-09T06:47:49.828Z,28.93
2018-06-09T06:50:20.374Z,37.13
2018-06-09T06:52:51.135Z,32.07
2018-06-09T06:55:21.806Z,29.67
2018-06-09T06:57:52.301Z,26.00
2018-06-09T07:00:22.977Z,23.50
2018-06-09T07:02:53.818Z,38.60
2018-06-09T07:05:25.629Z,22.60
2018-06-09T07:07:56.258Z,23.97
2018-06-09T07:10:26.965Z,39.67
2018-06-09T07:12:58.449Z,45.03
2018-06-09T07:15:29.136Z,24.87
2018-06-09T07:17:59.597Z,22.13
2018-06-09T07:20:30.052Z,30.27
2018-06-09T07:23:01.189Z,23.07
2018-06-09T07:25:32.084Z,36.37
2018-06-09T07:28:03.040Z,26.70
2018-06-09T07:30:33.550Z,24.00
2018-06-09T07:33:04.246Z,24.93
2018-06-09T07:35:34.852Z,30.17
2018-06-09T07:38:05.696Z,22.67
2018-06-09T07:40:36.122Z,26.23
2018-06-09T07:43:07.130Z,25.30
2018-06-09T07:45:37.620Z,35.67
2018-06-09T07:48:09.308Z,25.53
2018-06-09T07:50:40.126Z,21.30
2018-06-09T07:53:10.563Z,28.27
2018-06-09T07:55:41.246Z,23.83
2018-06-09T07:58:12.162Z,52.73
2018-06-09T08:00:43.605Z,33.03
2018-06-09T08:03:14.130Z,23.30
2018-06-09T08:05:44.593Z,35.83
2018-06-09T08:08:15.904Z,21.70
2018-06-09T08:10:46.525Z,23.33
2018-06-09T08:13:17.868Z,26.90
2018-06-09T08:15:48.377Z,23.23
2018-06-09T08:18:22.765Z,65.90
2018-06-09T08:20:53.144Z,42.83
2018-06-09T08:23:23.837Z,24.10
2018-06-09T08:25:55.234Z,34.33
2018-06-09T08:28:26.824Z,27.80
2018-06-09T08:30:59.287Z,38.50
2018-06-09T08:33:31.824Z,25.93
2018-06-09T08:36:03.303Z,30.13
2018-06-09T08:38:33.764Z,20.67
2018-06-09T08:41:05.305Z,44.43
2018-06-09T08:43:35.820Z,28.57
2018-06-09T08:46:08.507Z,30.43
2018-06-09T08:48:39.709Z,49.93
2018-06-09T08:51:12.723Z,41.40
2018-06-09T08:53:45.154Z,68.00
2018-06-09T08:56:16.434Z,31.60
2018-06-09T08:58:50.119Z,31.73
2018-06-09T09:01:21.957Z,33.13
2018-06-09T09:03:55.415Z,43.97
2018-06-09T09:06:26.099Z,29.57
2018-06-09T09:08:58.125Z,26.43
2018-06-09T09:11:28.583Z,25.40
2018-06-09T09:14:02.015Z,18.93
2018-06-09T09:16:33.302Z,20.53
2018-06-09T09:19:08.433Z,20.83
2018-06-09T09:21:39.510Z,58.83
2018-06-09T09:24:10.190Z,43.67
2018-06-09T09:26:41.777Z,35.10
2018-06-09T09:29:14.265Z,32.13
2018-06-09T09:31:46.651Z,33.37
2018-06-09T09:34:21.644Z,29.93
2018-06-09T09:36:53.006Z,23.97
2018-06-09T09:39:26.589Z,21.80
2018-06-09T09:41:57.627Z,15.50
2018-06-09T09:44:28.777Z,25.97
2018-06-09T09:47:01.281Z,24.87
2018-06-09T09:49:32.101Z,22.53
2018-06-09T09:52:03.861Z,30.93
2018-06-09T09:54:35.130Z,23.47
2018-06-09T09:57:06.445Z,14.60
2018-06-09T09:59:38.756Z,15.93
2018-06-09T10:02:11.916Z,16.70
2018-06-09T10:04:44.153Z,37.23
2018-06-09T10:07:17.545Z,27.87
2018-06-09T10:09:49.187Z,19.23
2018-06-09T10:12:23.075Z,20.77
2018-06-09T10:14:54.727Z,19.23
2018-06-09T10:17:26.299Z,20.07
2018-06-09T10:19:58.066Z,25.17
2018-06-09T10:22:31.008Z,15.33
2018-06-09T10:25:06.965Z,22.00
2018-06-09T10:27:39.541Z,15.00
2018-06-09T10:30:12.256Z,18.43
2018-06-09T10:32:45.167Z,9.63
2018-06-09T10:35:17.767Z,21.90
2018-06-09T10:37:49.678Z,15.90
2018-06-09T10:40:21.380Z,14.17
2018-06-09T10:42:53.093Z,10.50
2018-06-09T10:45:25.175Z,31.40
2018-06-09T10:47:57.022Z,8.93
2018-06-09T10:50:28.911Z,39.03
2018-06-09T10:53:00.391Z,27.47
2018-06-09T10:55:33.189Z,18.00
2018-06-09T10:58:04.206Z,11.20
2018-06-09T11:00:35.796Z,9.00
2018-06-09T11:03:07.555Z,12.57
2018-06-09T11:05:39.457Z,13.60
2018-06-09T11:08:11.155Z,13.23
2018-06-09T11:10:43.455Z,7.87
2018-06-09T11:13:14.891Z,12.47
2018-06-09T11:15:46.850Z,6.13
2018-06-09T11:18:18.240Z,9.10
2018-06-09T11:20:49.807Z,9.10
2018-06-09T11:23:21.397Z,11.03
2018-06-09T11:25:53.116Z,14.87
2018-06-09T11:28:24.936Z,23.77
2018-06-09T11:30:56.583Z,9.53
2018-06-09T11:33:28.136Z,11.83
2018-06-09T11:35:59.661Z,8.60
2018-06-09T11:38:32.264Z,10.60
2018-06-09T11:41:04.555Z,9.23
2018-06-09T11:43:36.550Z,27.50
2018-06-09T11:46:09.174Z,54.60
2018-06-09T11:48:40.767Z,13.50
2018-06-09T11:51:12.507Z,14.40
2018-06-09T11:53:44.046Z,17.90
2018-06-09T11:56:15.914Z,14.43
2018-06-09T11:58:47.615Z,48.97
2018-06-09T12:01:18.271Z,19.73
2018-06-09T12:03:50.302Z,51.90
2018-06-09T12:06:21.900Z,32.87
2018-06-09T12:08:53.480Z,37.57
2018-06-09T12:11:26.253Z,24.13
2018-06-09T12:13:58.056Z,20.63
2018-06-09T12:16:30.336Z,11.07
2018-06-09T12:19:01.886Z,16.07
2018-06-09T12:21:33.530Z,15.83
2018-06-09T12:24:05.294Z,17.30
2018-06-09T12:26:37.456Z,10.87
2018-06-09T12:29:09.536Z,9.17
2018-06-09T12:31:41.762Z,12.93
2018-06-09T12:34:14.251Z,14.60
2018-06-09T12:36:47.132Z,15.40
2018-06-09T12:39:19.602Z,10.20
2018-06-09T12:41:51.259Z,8.50
2018-06-09T12:44:23.478Z,15.30
2018-06-09T12:46:55.236Z,16.00
2018-06-09T12:49:27.276Z,12.17
2018-06-09T12:51:58.984Z,27.30
2018-06-09T12:54:30.713Z,23.80
2018-06-09T12:57:02.794Z,17.83
2018-06-09T12:59:34.368Z,14.87
2018-06-09T13:02:06.179Z,14.63
2018-06-09T13:04:37.059Z,14.77
2018-06-09T13:07:08.784Z,14.13
2018-06-09T13:09:40.387Z,9.80
2018-06-09T13:12:12.130Z,11.40
2018-06-09T13:14:45.225Z,18.33
2018-06-09T13:17:23.040Z,14.37
2018-06-09T13:19:54.681Z,12.13
2018-06-09T13:22:27.163Z,13.33
2018-06-09T13:24:58.727Z,13.53
2018-06-09T13:27:30.535Z,17.20
2018-06-09T13:30:02.270Z,19.33
2018-06-09T13:32:34.186Z,25.67
2018-06-09T13:35:05.853Z,27.70
2018-06-09T13:37:37.598Z,26.20
2018-06-09T13:40:09.640Z,16.53
2018-06-09T13:42:41.326Z,14.67
2018-06-09T13:45:12.822Z,14.97
2018-06-09T13:47:44.904Z,21.70
2018-06-09T13:50:16.536Z,19.43
2018-06-09T13:52:49.291Z,17.80
2018-06-09T13:55:21.047Z,19.57
2018-06-09T13:57:52.703Z,17.00
2018-06-09T14:00:24.276Z,14.33
2018-06-09T14:02:56.452Z,25.53
2018-06-09T14:05:28.289Z,17.87
2018-06-09T14:08:00.114Z,24.30
2018-06-09T14:10:31.896Z,27.13
2018-06-09T14:13:03.813Z,24.77
2018-06-09T14:15:35.356Z,13.30
2018-06-09T14:18:07.305Z,16.90
2018-06-09T14:20:38.902Z,19.33
2018-06-09T14:23:10.874Z,28.47
2018-06-09T14:25:42.436Z,20.23
2018-06-09T14:28:14.028Z,32.43
2018-06-09T14:30:45.958Z,26.40
2018-06-09T14:33:17.564Z,16.57
2018-06-09T14:35:49.087Z,21.27
2018-06-09T14:38:20.685Z,15.17
2018-06-09T14:40:52.380Z,15.33
2018-06-09T14:43:24.116Z,13.33
2018-06-09T14:45:57.608Z,11.23
2018-06-09T14:48:29.332Z,25.30
2018-06-09T14:51:01.080Z,14.10
2018-06-09T14:53:32.717Z,16.70
2018-06-09T14:56:05.000Z,14.87
2018-06-09T14:58:37.389Z,14.37
2018-06-09T15:01:09.195Z,14.50
2018-06-09T15:03:41.302Z,15.10
2018-06-09T15:06:12.013Z,15.73
2018-06-09T15:08:43.843Z,13.57
2018-06-09T15:11:15.392Z,31.60
2018-06-09T15:13:47.493Z,22.07
2018-06-09T15:16:18.951Z,25.83
2018-06-09T15:18:50.760Z,21.83
2018-06-09T15:21:22.188Z,18.63
2018-06-09T15:23:53.889Z,21.30
2018-06-09T15:26:25.589Z,20.27
2018-06-09T15:28:57.358Z,17.43
2018-06-09T15:31:28.981Z,17.30
2018-06-09T15:34:00.578Z,20.63
2018-06-09T15:36:32.121Z,21.17
2018-06-09T15:39:04.031Z,19.50
2018-06-09T15:41:35.826Z,31.53
2018-06-09T15:44:07.590Z,32.70
2018-06-09T15:46:39.317Z,34.20
2018-06-09T15:49:11.047Z,30.43
2018-06-09T15:51:43.573Z,34.37
2018-06-09T15:54:15.508Z,16.17
2018-06-09T15:56:47.109Z,16.47
2018-06-09T15:59:18.628Z,23.70
2018-06-09T16:01:50.323Z,46.67
2018-06-09T16:04:21.954Z,23.03
2018-06-09T16:06:53.921Z,23.90
2018-06-09T16:09:26.048Z,19.73
2018-06-09T16:11:58.029Z,24.43
2018-06-09T16:14:30.438Z,23.70
2018-06-09T16:17:02.196Z,22.87
2018-06-09T16:19:33.925Z,17.20
2018-06-09T16:22:06.594Z,23.57
2018-06-09T16:24:38.395Z,24.37
2018-06-09T16:27:09.130Z,45.17
2018-06-09T16:29:40.659Z,23.83
2018-06-09T16:32:12.374Z,31.43
2018-06-09T16:34:46.072Z,28.33
2018-06-09T16:37:17.776Z,30.90
2018-06-09T16:39:49.929Z,34.43
2018-06-09T16:42:21.613Z,34.33
2018-06-09T16:44:56.515Z,38.13
2018-06-09T16:47:28.352Z,49.23
2018-06-09T16:50:00.083Z,47.10
2018-06-09T16:52:30.808Z,45.40
2018-06-09T16:55:02.394Z,43.17
2018-06-09T16:57:34.109Z,39.30
2018-06-09T17:00:05.314Z,42.87
2018-06-09T17:02:35.932Z,39.83
2018-06-09T17:05:06.461Z,43.33
2018-06-09T17:07:37.061Z,40.77
2018-06-09T17:10:07.678Z,52.83
2018-06-09T17:12:38.425Z,39.87
2018-06-09T17:15:08.844Z,54.97
2018-06-09T17:17:39.866Z,51.80
2018-06-09T17:20:10.420Z,37.03
2018-06-09T17:22:41.086Z,66.83
2018-06-09T17:25:11.774Z,47.23
2018-06-09T17:27:46.676Z,38.57
2018-06-09T17:30:18.332Z,51.53
2018-06-09T17:32:49.166Z,67.13
2018-06-09T17:35:19.642Z,69.87
2018-06-09T17:37:50.477Z,93.27
2018-06-09T17:40:21.084Z,62.80
2018-06-09T17:42:51.771Z,71.40
2018-06-09T17:45:22.318Z,67.63
2018-06-09T17:47:52.979Z,67.83
2018-06-09T17:50:23.523Z,47.77
2018-06-09T17:52:54.036Z,95.70
2018-06-09T17:55:24.640Z,52.77
2018-06-09T17:57:55.260Z,61.93
2018-06-09T18:00:25.905Z,63.47
2018-06-09T18:02:56.563Z,70.80
2018-06-09T18:05:28.065Z,70.73
2018-06-09T18:07:59.648Z,59.40
2018-06-09T18:10:31.343Z,69.97
2018-06-09T18:13:03.104Z,64.27
2018-06-09T18:15:34.739Z,64.93
2018-06-09T18:18:06.344Z,51.00
2018-06-09T18:20:38.000Z,56.70
2018-06-09T18:23:09.822Z,55.70
2018-06-09T18:25:41.669Z,74.37
2018-06-09T18:28:13.214Z,47.03
2018-06-09T18:30:46.032Z,39.03
2018-06-09T18:33:18.275Z,52.87
2018-06-09T18:35:49.789Z,49.13
2018-06-09T18:38:23.244Z,58.70
2018-06-09T18:40:55.201Z,44.63
2018-06-09T18:43:26.965Z,45.83
2018-06-09T18:45:59.453Z,34.67
2018-06-09T18:48:31.437Z,39.20
2018-06-09T18:51:03.768Z,36.53
2018-06-09T18:53:35.629Z,47.30
2018-06-09T18:56:08.263Z,28.03
2018-06-09T18:58:41.384Z,37.67
2018-06-09T19:01:13.312Z,38.07
2018-06-09T19:03:45.210Z,34.80
2018-06-09T19:06:17.223Z,36.77
2018-06-09T19:08:49.234Z,35.30
2018-06-09T19:11:21.034Z,44.73
2018-06-09T19:13:53.031Z,68.87
2018-06-09T19:16:24.844Z,64.17
2018-06-09T19:18:56.920Z,52.87
2018-06-09T19:21:28.700Z,51.50
2018-06-09T19:24:00.403Z,34.83
2018-06-09T19:26:32.393Z,35.67
2018-06-09T19:29:04.338Z,42.07
2018-06-09T19:31:36.391Z,38.60
2018-06-09T19:34:08.292Z,38.07
2018-06-09T19:36:40.702Z,33.63
2018-06-09T19:39:13.172Z,40.00
2018-06-09T19:41:44.872Z,40.67
2018-06-09T19:44:16.723Z,61.33
2018-06-09T19:46:48.526Z,45.30
2018-06-09T19:49:20.564Z,45.93
2018-06-09T19:51:52.550Z,37.83
2018-06-09T19:54:24.286Z,41.20
2018-06-09T19:56:56.122Z,49.07
2018-06-09T19:59:27.849Z,42.37
2018-06-09T20:01:59.831Z,50.10
2018-06-09T20:04:32.691Z,38.90
2018-06-09T20:07:04.917Z,37.50
2018-06-09T20:09:35.651Z,32.63
2018-06-09T20:12:07.797Z,34.07
2018-06-09T20:14:39.451Z,38.70
2018-06-09T20:17:11.552Z,44.77
2018-06-09T20:19:43.680Z,39.17
2018-06-09T20:22:16.703Z,37.90
2018-06-09T20:24:48.396Z,37.73
2018-06-09T20:27:28.706Z,40.60
2018-06-09T20:30:02.997Z,47.23
2018-06-09T20:32:35.957Z,35.83
2018-06-09T20:35:09.833Z,39.03
2018-06-09T20:37:43.082Z,38.07
2018-06-09T20:40:17.422Z,29.13
2018-06-09T20:42:49.294Z,34.13
2018-06-09T20:45:21.700Z,31.37
2018-06-09T20:47:53.713Z,41.53
2018-06-09T20:50:25.566Z,39.60
2018-06-09T20:52:57.347Z,27.07
2018-06-09T20:55:29.150Z,31.53
2018-06-09T20:58:02.263Z,19.40
2018-06-09T21:00:34.037Z,20.27
2018-06-09T21:03:06.012Z,19.43
2018-06-09T21:05:38.572Z,19.50
2018-06-09T21:08:11.462Z,18.90
2018-06-09T21:10:48.535Z,22.33
2018-06-09T21:13:20.106Z,21.60
2018-06-09T21:15:51.900Z,26.13
2018-06-09T21:18:24.025Z,20.03
2018-06-09T21:20:56.872Z,24.73
2018-06-09T21:23:29.163Z,23.67
2018-06-09T21:26:01.374Z,23.93
2018-06-09T21:28:37.997Z,34.00
2018-06-09T21:31:14.670Z,31.13
2018-06-09T21:34:01.243Z,39.80
2018-06-09T21:36:37.602Z,39.60
2018-06-09T21:39:14.824Z,34.13
2018-06-09T21:41:52.327Z,35.10
2018-06-09T21:44:28.787Z,28.43
2018-06-09T21:47:00.947Z,26.00
2018-06-09T21:49:33.077Z,25.40
2018-06-09T21:52:04.932Z,32.90
2018-06-09T21:54:37.088Z,31.97
2018-06-09T21:57:08.929Z,43.80
2018-06-09T21:59:41.507Z,37.17
2018-06-09T22:02:13.598Z,39.90
2018-06-09T22:04:46.651Z,47.23
2018-06-09T22:07:18.979Z,45.23
2018-06-09T22:09:51.331Z,44.40
2018-06-09T22:12:24.611Z,41.20
2018-06-09T22:14:56.282Z,41.63
2018-06-09T22:17:29.206Z,46.63
2018-06-09T22:20:01.606Z,40.00
2018-06-09T22:22:33.633Z,42.40
2018-06-09T22:25:06.562Z,45.07
2018-06-09T22:27:38.287Z,39.27
2018-06-09T22:30:14.888Z,44.80
2018-06-09T22:32:46.456Z,50.33
2018-06-09T22:35:18.202Z,47.33
2018-06-09T22:37:49.955Z,57.83
2018-06-09T22:40:21.360Z,54.20
2018-06-09T22:42:52.957Z,55.23
2018-06-09T22:45:25.768Z,47.90
2018-06-09T22:47:58.266Z,40.23
2018-06-09T22:50:31.165Z,40.73
2018-06-09T22:53:03.019Z,34.93
2018-06-09T22:55:35.039Z,35.80
2018-06-09T22:58:06.981Z,40.40
2018-06-09T23:00:50.167Z,41.83
2018-06-09T23:03:22.009Z,35.57
2018-06-09T23:05:54.076Z,42.83
2018-06-09T23:08:26.354Z,128.83
